Terminal Aerodrome Forecast
Issued by NWS Atlanta, GA

Home | Current Version | Previous Version | Text Only | Print | Product List | Glossary On
Versions: 1 2 3 4 5 6 7 8 9 10 11 12 13 14 15
000
FTUS42 KFFC 201100
TAFCSG
TAF
KCSG 201131Z 2012/2112 08007KT P6SM OVC015
     FM201500 06010KT P6SM OVC030
     FM201800 06011G16KT P6SM SCT060
     FM210000 06003KT P6SM SCT250=

USA.gov is the U.S. government's official web portal to all federal, state and local government web resources and services.